createdAt,value
2023-03-10T00:01:29.809Z,4.58
2023-03-10T00:03:59.396Z,4.54
2023-03-10T00:06:29.268Z,4.49
2023-03-10T00:08:59.389Z,4.45
2023-03-10T00:11:27.791Z,4.38
2023-03-10T00:13:57.182Z,4.32
2023-03-10T00:16:29.685Z,4.29
2023-03-10T00:18:59.314Z,4.19
2023-03-10T00:21:30.261Z,4.14
2023-03-10T00:23:59.321Z,4.12
2023-03-10T00:26:29.095Z,4.09
2023-03-10T00:28:57.406Z,4.03
2023-03-10T00:31:28.039Z,4.01
2023-03-10T00:33:56.570Z,3.97
2023-03-10T00:36:28.410Z,3.92
2023-03-10T00:38:57.466Z,3.91
2023-03-10T00:41:27.719Z,3.89
2023-03-10T00:43:55.945Z,3.88
2023-03-10T00:46:25.554Z,3.87
2023-03-10T00:48:53.780Z,3.85
2023-03-10T00:51:22.174Z,3.83
2023-03-10T00:53:50.940Z,3.80
2023-03-10T00:56:24.538Z,3.79
2023-03-10T00:58:56.069Z,3.79
2023-03-10T01:01:39.788Z,3.78
2023-03-10T01:04:14.307Z,3.74
2023-03-10T01:06:44.663Z,3.68
2023-03-10T01:09:14.871Z,3.63
2023-03-10T01:11:43.148Z,3.60
2023-03-10T01:14:13.467Z,3.60
2023-03-10T01:16:41.648Z,3.57
2023-03-10T01:19:09.853Z,3.55
2023-03-10T01:21:38.530Z,3.52
2023-03-10T01:24:07.015Z,3.48
2023-03-10T01:26:35.882Z,3.45
2023-03-10T01:29:05.501Z,3.39
2023-03-10T01:31:33.840Z,3.36
2023-03-10T01:34:03.587Z,3.33
2023-03-10T01:36:31.844Z,3.29
2023-03-10T01:39:00.526Z,3.26
2023-03-10T01:41:29.090Z,3.23
2023-03-10T01:43:57.771Z,3.22
2023-03-10T01:46:38.502Z,3.21
2023-03-10T01:49:19.502Z,3.17
2023-03-10T01:51:54.212Z,3.12
2023-03-10T01:54:26.253Z,3.10
2023-03-10T01:56:54.485Z,3.07
2023-03-10T01:59:22.701Z,3.05
2023-03-10T02:01:51.254Z,3.04
2023-03-10T02:04:27.368Z,3.05
2023-03-10T02:06:55.731Z,3.05
2023-03-10T02:09:25.010Z,3.07
2023-03-10T02:11:53.307Z,3.09
2023-03-10T02:14:24.679Z,3.09
2023-03-10T02:16:53.303Z,3.06
2023-03-10T02:19:45.057Z,3.03
2023-03-10T02:22:15.660Z,3.03
2023-03-10T02:24:54.846Z,3.03
2023-03-10T02:27:24.974Z,3.03
2023-03-10T02:30:02.728Z,3.04
2023-03-10T02:32:36.078Z,3.02
2023-03-10T02:35:04.829Z,2.99
2023-03-10T02:37:34.313Z,2.99
2023-03-10T02:40:05.031Z,2.96
2023-03-10T02:42:35.949Z,2.93
2023-03-10T02:45:05.522Z,2.92
2023-03-10T02:47:34.493Z,2.90
2023-03-10T02:50:05.147Z,2.87
2023-03-10T02:52:47.553Z,2.85
2023-03-10T02:55:17.349Z,2.84
2023-03-10T02:57:45.667Z,2.79
2023-03-10T03:00:14.306Z,2.73
2023-03-10T03:02:44.368Z,2.67
2023-03-10T03:05:13.960Z,2.62
2023-03-10T03:07:42.443Z,2.59
2023-03-10T03:10:12.121Z,2.54
2023-03-10T03:12:40.606Z,2.49
2023-03-10T03:15:13.900Z,2.46
2023-03-10T03:17:43.952Z,2.43
2023-03-10T03:20:15.697Z,2.41
2023-03-10T03:22:47.742Z,2.42
2023-03-10T03:25:18.061Z,2.44
2023-03-10T03:27:47.010Z,2.44
2023-03-10T03:30:17.496Z,2.41
2023-03-10T03:32:45.950Z,2.39
2023-03-10T03:35:17.337Z,2.35
2023-03-10T03:37:46.346Z,2.35
2023-03-10T03:40:15.888Z,2.36
2023-03-10T03:42:48.413Z,2.36
2023-03-10T03:45:20.237Z,2.38
2023-03-10T03:47:49.717Z,2.38
2023-03-10T03:50:19.271Z,2.34
2023-03-10T03:52:47.654Z,2.32
2023-03-10T03:55:17.109Z,2.29
2023-03-10T03:57:47.475Z,2.25
2023-03-10T04:00:18.753Z,2.20
2023-03-10T04:02:47.472Z,2.14
2023-03-10T04:05:19.581Z,2.12
2023-03-10T04:07:50.129Z,2.11
2023-03-10T04:10:20.858Z,2.09
2023-03-10T04:12:57.135Z,2.06
2023-03-10T04:15:25.766Z,2.04
2023-03-10T04:17:57.869Z,2.01
2023-03-10T04:20:26.630Z,2.01
2023-03-10T04:22:55.675Z,2.02
2023-03-10T04:28:26.284Z,2.02
2023-03-10T04:30:55.517Z,2.01
2023-03-10T04:33:28.997Z,2.01
2023-03-10T04:35:57.618Z,2.01
2023-03-10T04:38:28.265Z,2.02
2023-03-10T04:40:56.911Z,2.01
2023-03-10T04:43:27.603Z,2.03
2023-03-10T04:45:56.407Z,2.05
2023-03-10T04:48:24.914Z,2.07
2023-03-10T04:51:01.557Z,2.08
2023-03-10T04:53:32.797Z,2.10
2023-03-10T04:56:03.583Z,2.11
2023-03-10T04:58:32.819Z,2.12
2023-03-10T05:01:03.430Z,2.13
2023-03-10T05:03:37.124Z,2.12
2023-03-10T05:06:15.584Z,2.13
2023-03-10T05:08:46.244Z,2.13
2023-03-10T05:11:14.640Z,2.11
2023-03-10T05:13:43.037Z,2.12
2023-03-10T05:16:16.787Z,2.13
2023-03-10T05:18:47.510Z,2.14
2023-03-10T05:21:16.848Z,2.16
2023-03-10T05:23:46.526Z,2.18
2023-03-10T05:26:15.850Z,2.19
2023-03-10T05:28:47.809Z,2.22
2023-03-10T05:31:26.155Z,2.24
2023-03-10T05:33:58.460Z,2.26
2023-03-10T05:36:26.916Z,2.28
2023-03-10T05:38:55.350Z,2.28
2023-03-10T05:41:23.575Z,2.29
2023-03-10T05:43:54.555Z,2.29
2023-03-10T05:46:24.587Z,2.28
2023-03-10T05:48:56.092Z,2.27
2023-03-10T05:51:25.171Z,2.28
2023-03-10T05:53:53.544Z,2.31
2023-03-10T05:56:26.083Z,2.35
2023-03-10T05:58:57.031Z,2.36
2023-03-10T06:01:29.637Z,2.36
2023-03-10T06:03:58.587Z,2.36
2023-03-10T06:06:26.750Z,2.36
2023-03-10T06:08:56.743Z,2.37
2023-03-10T06:11:26.398Z,2.40
2023-03-10T06:13:55.341Z,2.42
2023-03-10T06:16:23.628Z,2.44
2023-03-10T06:18:56.682Z,2.47
2023-03-10T06:21:25.379Z,2.50
2023-03-10T06:23:53.838Z,2.53
2023-03-10T06:26:22.907Z,2.57
2023-03-10T06:28:51.461Z,2.61
2023-03-10T06:31:22.414Z,2.65
2023-03-10T06:33:51.051Z,2.69
2023-03-10T06:36:20.970Z,2.76
2023-03-10T06:38:49.239Z,2.83
2023-03-10T06:41:17.644Z,2.90
2023-03-10T06:43:45.883Z,2.95
2023-03-10T06:46:16.548Z,3.02
2023-03-10T06:48:46.779Z,3.11
2023-03-10T06:51:17.348Z,3.23
2023-03-10T06:53:46.280Z,3.39
2023-03-10T06:56:19.591Z,3.61
2023-03-10T06:58:49.793Z,3.80
2023-03-10T07:01:29.351Z,3.97
2023-03-10T07:03:58.256Z,4.14
2023-03-10T07:06:32.353Z,4.25
2023-03-10T07:09:21.014Z,4.31
2023-03-10T07:11:49.945Z,4.32
2023-03-10T07:14:18.478Z,4.26
2023-03-10T07:16:46.773Z,4.20
2023-03-10T07:19:15.497Z,4.17
2023-03-10T07:21:44.274Z,4.11
2023-03-10T07:24:14.383Z,4.10
2023-03-10T07:26:42.965Z,4.18
2023-03-10T07:29:12.279Z,4.28
2023-03-10T07:31:41.110Z,4.30
2023-03-10T07:34:10.784Z,4.23
2023-03-10T07:36:39.389Z,4.17
2023-03-10T07:39:07.636Z,4.13
2023-03-10T07:41:36.112Z,4.15
2023-03-10T07:44:04.892Z,4.19
2023-03-10T07:46:34.556Z,4.19
2023-03-10T07:49:06.836Z,4.17
2023-03-10T07:51:35.983Z,4.21
2023-03-10T07:54:04.528Z,4.27
2023-03-10T07:56:33.880Z,4.30
2023-03-10T07:59:02.474Z,4.30
2023-03-10T08:01:36.144Z,4.33
2023-03-10T08:04:05.360Z,4.30
2023-03-10T08:06:35.765Z,4.26
2023-03-10T08:09:04.247Z,4.25
2023-03-10T08:11:32.537Z,4.25
2023-03-10T08:14:02.188Z,4.24
2023-03-10T08:16:31.105Z,4.20
2023-03-10T08:18:59.596Z,4.19
2023-03-10T08:21:28.246Z,4.21
2023-03-10T08:23:57.161Z,4.17
2023-03-10T08:26:25.424Z,4.11
2023-03-10T08:28:53.815Z,4.13
2023-03-10T08:31:22.136Z,4.15
2023-03-10T08:33:54.622Z,4.10
2023-03-10T08:36:24.370Z,4.12
2023-03-10T08:38:54.272Z,4.21
2023-03-10T08:41:24.866Z,4.33
2023-03-10T08:43:57.370Z,4.44
2023-03-10T08:46:28.248Z,4.54
2023-03-10T08:48:56.854Z,4.63
2023-03-10T08:51:26.154Z,4.75
2023-03-10T08:53:54.568Z,4.89
2023-03-10T08:56:23.200Z,5.02
2023-03-10T08:58:54.522Z,5.11
2023-03-10T09:01:23.174Z,5.21
2023-03-10T09:03:51.440Z,5.28
2023-03-10T09:06:19.859Z,5.38
2023-03-10T09:08:50.777Z,5.38
2023-03-10T09:11:25.770Z,5.35
2023-03-10T09:13:54.470Z,5.36
2023-03-10T09:16:24.882Z,5.38
2023-03-10T09:18:53.168Z,5.44
2023-03-10T09:21:21.617Z,5.49
2023-03-10T09:23:50.477Z,5.54
2023-03-10T09:26:19.798Z,5.65
2023-03-10T09:28:51.228Z,5.86
2023-03-10T09:31:23.385Z,6.05
2023-03-10T09:33:53.025Z,6.23
2023-03-10T09:36:25.020Z,6.45
2023-03-10T09:38:54.796Z,6.63
2023-03-10T09:41:34.621Z,6.75
2023-03-10T09:44:23.892Z,6.85
2023-03-10T09:46:52.713Z,7.02
2023-03-10T09:49:57.395Z,7.22
2023-03-10T09:52:30.336Z,7.40
2023-03-10T09:55:07.311Z,7.47
2023-03-10T09:57:35.664Z,7.48
2023-03-10T10:00:11.719Z,7.49
2023-03-10T10:02:43.742Z,7.53
2023-03-10T10:05:27.521Z,7.54
2023-03-10T10:07:58.284Z,7.54
2023-03-10T10:10:28.785Z,7.56
2023-03-10T10:13:12.752Z,7.56
2023-03-10T10:15:47.442Z,7.54
2023-03-10T10:18:25.691Z,7.39
2023-03-10T10:21:02.424Z,7.15
2023-03-10T10:23:50.825Z,6.90
2023-03-10T10:26:26.453Z,6.67
2023-03-10T10:28:59.572Z,6.49
2023-03-10T10:31:28.495Z,6.35
2023-03-10T10:34:00.613Z,6.21
2023-03-10T10:36:48.343Z,6.13
2023-03-10T10:39:37.291Z,6.01
2023-03-10T10:42:28.597Z,5.96
2023-03-10T10:45:04.945Z,5.97
2023-03-10T10:47:36.325Z,5.95
2023-03-10T10:50:18.346Z,5.96
2023-03-10T10:52:50.654Z,5.91
2023-03-10T10:55:30.355Z,5.91
2023-03-10T10:58:01.771Z,5.90
2023-03-10T11:00:32.470Z,5.87
2023-03-10T11:03:19.335Z,5.81
2023-03-10T11:05:48.560Z,5.75
2023-03-10T11:08:27.098Z,5.70
2023-03-10T11:10:59.401Z,5.66
2023-03-10T11:14:00.189Z,5.65
2023-03-10T11:16:47.172Z,5.61
2023-03-10T11:19:28.542Z,5.58
2023-03-10T11:22:03.041Z,5.57
2023-03-10T11:24:46.010Z,5.58
2023-03-10T11:27:32.152Z,5.61
2023-03-10T11:30:02.345Z,5.62
2023-03-10T11:32:41.210Z,5.62
2023-03-10T11:35:24.234Z,5.66
2023-03-10T11:38:10.740Z,5.69
2023-03-10T11:40:49.410Z,5.73
2023-03-10T11:43:26.854Z,5.75
2023-03-10T11:45:55.595Z,5.81
2023-03-10T11:49:12.438Z,5.90
2023-03-10T11:51:48.490Z,5.96
2023-03-10T11:54:35.404Z,5.94
2023-03-10T11:57:09.817Z,5.97
2023-03-10T11:59:43.380Z,6.02
2023-03-10T12:02:27.429Z,6.08
2023-03-10T12:05:13.567Z,6.15
2023-03-10T12:07:45.961Z,6.20
2023-03-10T12:10:22.020Z,6.19
2023-03-10T12:12:51.367Z,6.17
2023-03-10T12:15:37.164Z,6.17
2023-03-10T12:18:08.051Z,6.12
2023-03-10T12:20:36.457Z,6.08
2023-03-10T12:23:10.086Z,6.08
2023-03-10T12:25:39.271Z,6.10
2023-03-10T12:28:16.870Z,6.15
2023-03-10T12:30:47.473Z,6.19
2023-03-10T12:33:39.715Z,6.20
2023-03-10T12:36:32.830Z,6.20
2023-03-10T12:39:26.358Z,6.26
2023-03-10T12:42:35.025Z,6.32
2023-03-10T12:45:29.593Z,6.35
2023-03-10T12:48:02.054Z,6.37
2023-03-10T12:50:42.478Z,6.37
2023-03-10T12:53:11.547Z,6.38
2023-03-10T12:55:43.704Z,6.39
2023-03-10T12:58:23.337Z,6.48
2023-03-10T13:00:58.171Z,6.66
2023-03-10T13:03:35.566Z,6.83
2023-03-10T13:06:04.028Z,6.97
2023-03-10T13:08:50.180Z,7.08
2023-03-10T13:11:18.440Z,7.26
2023-03-10T13:13:53.940Z,7.52
2023-03-10T13:16:22.218Z,7.82
2023-03-10T13:18:54.280Z,8.10
2023-03-10T13:21:29.634Z,8.38
2023-03-10T13:24:04.443Z,8.66
2023-03-10T13:26:34.151Z,8.83
2023-03-10T13:29:04.312Z,8.98
2023-03-10T13:31:33.986Z,9.01
2023-03-10T13:34:21.284Z,9.06
2023-03-10T13:36:49.810Z,9.08
2023-03-10T13:39:27.457Z,9.21
2023-03-10T13:41:58.690Z,9.37
2023-03-10T13:44:34.677Z,9.44
2023-03-10T13:47:04.878Z,9.59
2023-03-10T13:49:35.299Z,9.73
2023-03-10T13:52:06.685Z,9.91
2023-03-10T13:54:41.201Z,10.09
2023-03-10T13:57:31.111Z,10.26
2023-03-10T14:00:00.192Z,10.41
2023-03-10T14:02:48.089Z,10.52
2023-03-10T14:05:39.590Z,10.60
2023-03-10T14:08:28.108Z,10.61
2023-03-10T14:11:22.073Z,10.47
2023-03-10T14:13:50.378Z,10.23
2023-03-10T14:16:18.961Z,9.97
2023-03-10T14:18:51.303Z,9.72
2023-03-10T14:21:25.072Z,9.48
2023-03-10T14:23:53.727Z,9.22
2023-03-10T14:26:23.613Z,8.99
2023-03-10T14:28:51.775Z,8.79
2023-03-10T14:31:22.060Z,8.64
2023-03-10T14:33:51.010Z,8.48
2023-03-10T14:36:19.549Z,8.31
2023-03-10T14:38:49.671Z,8.17
2023-03-10T14:41:19.053Z,8.04
2023-03-10T14:43:47.268Z,7.92
2023-03-10T14:46:15.720Z,7.83
2023-03-10T14:48:46.131Z,7.73
2023-03-10T14:51:28.972Z,7.64
2023-03-10T14:54:01.452Z,7.54
2023-03-10T14:56:33.556Z,7.45
2023-03-10T14:59:02.747Z,7.38
2023-03-10T15:01:32.397Z,7.32
2023-03-10T15:04:00.923Z,7.29
2023-03-10T15:06:29.876Z,7.32
2023-03-10T15:09:05.011Z,7.36
2023-03-10T15:11:37.245Z,7.36
2023-03-10T15:14:17.847Z,7.37
2023-03-10T15:16:49.064Z,7.42
2023-03-10T15:19:21.307Z,7.46
2023-03-10T15:21:49.635Z,7.51
2023-03-10T15:24:18.014Z,7.52
2023-03-10T15:26:49.133Z,7.55
2023-03-10T15:29:23.679Z,7.55
2023-03-10T15:31:52.794Z,7.51
2023-03-10T15:34:22.914Z,7.48
2023-03-10T15:36:51.498Z,7.44
2023-03-10T15:39:31.139Z,7.41
2023-03-10T15:42:00.540Z,7.35
2023-03-10T15:44:29.541Z,7.26
2023-03-10T15:47:00.167Z,7.20
2023-03-10T15:49:30.751Z,7.14
2023-03-10T15:51:59.389Z,7.06
2023-03-10T15:54:27.764Z,6.98
2023-03-10T15:56:56.464Z,6.90
2023-03-10T15:59:28.053Z,6.82
2023-03-10T16:01:57.631Z,6.75
2023-03-10T16:04:26.084Z,6.71
2023-03-10T16:06:55.029Z,6.65
2023-03-10T16:09:23.334Z,6.55
2023-03-10T16:11:52.240Z,6.46
2023-03-10T16:14:26.464Z,6.37
2023-03-10T16:16:55.224Z,6.31
2023-03-10T16:19:23.383Z,6.23
2023-03-10T16:21:52.690Z,6.15
2023-03-10T16:24:21.980Z,6.08
2023-03-10T16:26:50.190Z,6.01
2023-03-10T16:29:19.989Z,5.96
2023-03-10T16:31:48.353Z,5.91
2023-03-10T16:34:18.253Z,5.88
2023-03-10T16:36:49.743Z,5.86
2023-03-10T16:39:18.804Z,5.86
2023-03-10T16:41:49.973Z,5.85
2023-03-10T16:44:22.118Z,5.79
2023-03-10T16:46:50.458Z,5.73
2023-03-10T16:49:18.725Z,5.67
2023-03-10T16:51:47.357Z,5.61
2023-03-10T16:54:20.683Z,5.57
2023-03-10T16:56:50.870Z,5.53
2023-03-10T16:59:21.758Z,5.50
2023-03-10T17:01:50.654Z,5.47
2023-03-10T17:04:19.356Z,5.45
2023-03-10T17:06:48.862Z,5.41
2023-03-10T17:09:17.446Z,5.37
2023-03-10T17:11:55.190Z,5.31
2023-03-10T17:14:24.590Z,5.26
2023-03-10T17:16:54.157Z,5.21
2023-03-10T17:19:28.850Z,5.14
2023-03-10T17:21:57.475Z,5.07
2023-03-10T17:24:27.591Z,5.03
2023-03-10T17:26:57.043Z,4.99
2023-03-10T17:29:25.634Z,4.96
2023-03-10T17:31:56.935Z,4.94
2023-03-10T17:34:27.240Z,4.93
2023-03-10T17:36:56.510Z,4.92
2023-03-10T17:39:27.867Z,4.91
2023-03-10T17:41:56.211Z,4.91
2023-03-10T17:44:27.519Z,4.88
2023-03-10T17:46:58.965Z,4.85
2023-03-10T17:49:27.713Z,4.84
2023-03-10T17:51:55.977Z,4.82
2023-03-10T17:54:26.490Z,4.79
2023-03-10T17:56:55.432Z,4.78
2023-03-10T17:59:23.603Z,4.76
2023-03-10T18:01:53.088Z,4.74
2023-03-10T18:04:21.709Z,4.71
2023-03-10T18:06:55.793Z,4.69
2023-03-10T18:09:43.872Z,4.65
2023-03-10T18:12:13.325Z,4.62
2023-03-10T18:14:44.817Z,4.60
2023-03-10T18:17:13.069Z,4.58
2023-03-10T18:19:52.406Z,4.56
2023-03-10T18:22:22.686Z,4.56
2023-03-10T18:24:51.006Z,4.55
2023-03-10T18:27:19.593Z,4.52
2023-03-10T18:29:47.991Z,4.49
2023-03-10T18:32:19.040Z,4.48
2023-03-10T18:34:49.813Z,4.45
2023-03-10T18:37:26.654Z,4.42
2023-03-10T18:40:06.135Z,4.39
2023-03-10T18:42:41.095Z,4.37
2023-03-10T18:45:10.529Z,4.35
2023-03-10T18:47:39.088Z,4.34
2023-03-10T18:50:25.905Z,4.32
2023-03-10T18:52:59.479Z,4.30
2023-03-10T18:55:27.893Z,4.27
2023-03-10T18:57:56.618Z,4.23
2023-03-10T19:00:25.776Z,4.19
2023-03-10T19:02:54.722Z,4.17
2023-03-10T19:05:23.195Z,4.15
2023-03-10T19:07:51.439Z,4.12
2023-03-10T19:10:19.858Z,4.10
2023-03-10T19:12:50.067Z,4.08
2023-03-10T19:15:18.904Z,4.04
2023-03-10T19:36:04.997Z,3.94
2023-03-10T19:38:46.777Z,3.93
2023-03-10T19:42:18.322Z,3.92
2023-03-10T19:44:57.529Z,3.89
2023-03-10T19:47:26.538Z,3.88
2023-03-10T19:49:58.349Z,3.88
2023-03-10T19:52:26.759Z,3.87
2023-03-10T19:54:55.112Z,3.85
2023-03-10T19:57:23.514Z,3.83
2023-03-10T19:59:52.596Z,3.80
2023-03-10T20:02:20.911Z,3.78
2023-03-10T20:04:50.710Z,3.76
2023-03-10T20:07:18.930Z,3.74
2023-03-10T20:09:49.741Z,3.73
2023-03-10T20:12:18.532Z,3.72
2023-03-10T20:14:47.500Z,3.71
2023-03-10T20:17:17.954Z,3.71
2023-03-10T20:19:47.691Z,3.69
2023-03-10T20:22:19.104Z,3.68
2023-03-10T20:24:47.446Z,3.65
2023-03-10T20:27:15.725Z,3.65
2023-03-10T20:29:48.231Z,3.64
2023-03-10T20:32:16.693Z,3.61
2023-03-10T20:34:45.195Z,3.59
2023-03-10T20:37:13.409Z,3.58
2023-03-10T20:39:49.132Z,3.59
2023-03-10T20:42:17.402Z,3.57
2023-03-10T20:44:45.805Z,3.55
2023-03-10T20:47:15.006Z,3.56
2023-03-10T20:49:43.918Z,3.56
2023-03-10T20:52:12.442Z,3.56
2023-03-10T20:54:41.439Z,3.55
2023-03-10T20:57:09.841Z,3.57
2023-03-10T20:59:40.180Z,3.58
2023-03-10T21:02:39.292Z,3.58
2023-03-10T21:05:07.900Z,3.55
2023-03-10T21:07:36.358Z,3.53
2023-03-10T21:10:06.460Z,3.52
2023-03-10T21:12:35.614Z,3.52
2023-03-10T21:15:04.893Z,3.51
2023-03-10T21:17:34.956Z,3.52
2023-03-10T21:20:11.796Z,3.53
2023-03-10T21:22:40.193Z,3.52
2023-03-10T21:25:15.116Z,3.51
2023-03-10T21:27:47.828Z,3.51
2023-03-10T21:30:18.057Z,3.50
2023-03-10T21:33:02.762Z,3.50
2023-03-10T21:35:34.317Z,3.51
2023-03-10T21:38:04.930Z,3.51
2023-03-10T21:40:33.424Z,3.51
2023-03-10T21:43:04.569Z,3.51
2023-03-10T21:45:37.467Z,3.52
2023-03-10T21:48:06.390Z,3.48
2023-03-10T21:50:34.629Z,3.46
2023-03-10T21:53:03.374Z,3.45
2023-03-10T21:55:32.236Z,3.45
2023-03-10T21:58:00.521Z,3.46
2023-03-10T22:00:30.168Z,3.48
2023-03-10T22:02:58.907Z,3.47
2023-03-10T22:05:27.747Z,3.46
2023-03-10T22:08:01.473Z,3.48
2023-03-10T22:10:31.283Z,3.47
2023-03-10T22:12:59.596Z,3.45
2023-03-10T22:15:29.045Z,3.45
2023-03-10T22:18:00.114Z,3.44
2023-03-10T22:20:28.853Z,3.46
2023-03-10T22:22:57.416Z,3.49
2023-03-10T22:25:25.752Z,3.50
2023-03-10T22:27:55.780Z,3.52
2023-03-10T22:30:25.303Z,3.54
2023-03-10T22:32:54.070Z,3.54
2023-03-10T22:35:22.346Z,3.54
2023-03-10T22:37:51.726Z,3.53
2023-03-10T22:40:22.150Z,3.53
2023-03-10T22:42:55.706Z,3.53
2023-03-10T22:45:31.345Z,3.54
2023-03-10T22:48:02.108Z,3.55
2023-03-10T22:50:50.574Z,3.56
2023-03-10T22:53:19.486Z,3.58
2023-03-10T22:55:49.808Z,3.60
2023-03-10T22:58:22.183Z,3.61
2023-03-10T23:00:51.206Z,3.63
2023-03-10T23:03:20.905Z,3.64
2023-03-10T23:05:49.413Z,3.66
2023-03-10T23:08:18.900Z,3.68
2023-03-10T23:10:47.593Z,3.69
2023-03-10T23:13:17.567Z,3.70
2023-03-10T23:15:46.628Z,3.70
2023-03-10T23:18:15.673Z,3.72
2023-03-10T23:20:47.942Z,3.73
2023-03-10T23:23:16.498Z,3.75
2023-03-10T23:25:47.315Z,3.75
2023-03-10T23:28:19.512Z,3.77
2023-03-10T23:30:48.280Z,3.77
2023-03-10T23:33:19.265Z,3.75
2023-03-10T23:35:50.546Z,3.74
2023-03-10T23:38:19.237Z,3.74
2023-03-10T23:40:47.897Z,3.74
2023-03-10T23:43:16.545Z,3.75
2023-03-10T23:45:53.332Z,3.74
2023-03-10T23:48:24.725Z,3.72
2023-03-10T23:50:53.040Z,3.72
2023-03-10T23:53:22.065Z,3.71
2023-03-10T23:55:50.334Z,3.69
2023-03-10T23:58:19.896Z,3.66
